PTSA/KSA METAR and TAF weather

Enter ICAO airport designator
Station Type Date Time Source
PTSA METAR 2019/04/20 01:50 UTC NOAA

PTSA 200150Z 06008KT 10SM BKN016TCU BKN130 OVC300 27/25 A2980 RMK TCU SE-SW


Station Type Date Time Source
PTSA Decoded METAR 2019/04/20 01:50 UTC NOAA

Kosrae Island, Kosrae Airport, Micronesia, Federated States of (PTSA) 05-21N 162-57E
Apr 19, 2019 - 09:50 PM EDT / 2019.04.20 0150 UTC
Wind: from the ENE (060 degrees) at 9 MPH (8 KT):0
Visibility: 10 mile(s):0
Sky conditions: overcast
Weather: Towering cumulus clouds observed
Temperature: 80 F (27 C)
Dew Point: 77 F (25 C)
Relative Humidity: 88%
Pressure (altimeter): 29.8 in. Hg (1009 hPa)
ob: PTSA 200150Z 06008KT 10SM BKN016TCU BKN130 OVC300 27/25 A2980 RMK TCU SE-SW
cycle: 2

Station Type Date Time Source
PTSA TAF 2019/04/19 23:39 UTC NOAA

TAF PTSA 192233Z 1923/2018 07011KT P6SM VCSH FEW016 SCT040 BKN120
TEMPO 1923/2002 5SM SHRA BKN016 BKN040

Example: see airport list